Time;durP1;ratioP1;P1;durP2;ratioP2;P2;SDS_P1;SDS_P2;PMS_P1;PMS_P2;Temp;Humidity;BMP_temperature;BMP_pressure;BME280_temperature;BME280_humidity;BME280_pressure;Samples;Min_cycle;Max_cycle;Signal;HPM_P1;HPM_P2
2022/01/29 00:00:37;;;;;;;3.58;2.72;;;;;;;18.18;31.97;101539.59;4229559;28;20043;-45
2022/01/29 00:02:39;;;;;;;3.28;2.90;;;;;;;18.17;31.79;101540.69;4230107;28;20032;-46
2022/01/29 00:04:40;;;;;;;3.17;2.40;;;;;;;18.18;31.71;101545.16;4230449;28;20047;-45
2022/01/29 00:06:42;;;;;;;3.90;2.90;;;;;;;18.17;31.76;101547.06;4231017;28;20100;-47
2022/01/29 00:08:43;;;;;;;3.25;2.75;;;;;;;18.15;31.71;101535.41;4230027;28;20043;-44
2022/01/29 00:10:48;;;;;;;3.97;2.47;;;;;;;17.83;31.93;101496.31;4229535;28;20441;-48
2022/01/29 00:12:52;;;;;;;3.17;2.50;;;;;;;18.15;32.06;101527.09;4231246;28;20256;-45
2022/01/29 00:14:53;;;;;;;4.40;2.97;;;;;;;18.11;31.92;101525.09;4229754;28;20345;-44
2022/01/29 00:16:55;;;;;;;3.72;2.60;;;;;;;18.11;32.02;101525.91;4229806;28;20044;-44
2022/01/29 00:18:56;;;;;;;2.67;2.40;;;;;;;18.13;31.76;101529.28;4229342;28;20075;-46
2022/01/29 00:20:58;;;;;;;4.38;2.92;;;;;;;18.12;32.00;101510.97;4229768;28;20389;-45
2022/01/29 00:22:59;;;;;;;2.80;2.40;;;;;;;18.08;31.92;101508.94;4230531;28;20096;-47
2022/01/29 00:25:01;;;;;;;3.15;2.85;;;;;;;18.11;31.71;101520.38;4230229;28;20634;-45
2022/01/29 00:27:09;;;;;;;3.80;2.40;;;;;;;18.10;31.86;101515.94;4229815;28;20470;-50
2022/01/29 00:29:19;;;;;;;2.55;2.33;;;;;;;18.10;31.83;101517.84;4229418;28;20105;-44
2022/01/29 00:31:23;;;;;;;2.90;2.60;;;;;;;18.10;31.95;101504.84;4232563;28;20035;-47
2022/01/29 00:33:25;;;;;;;2.92;2.65;;;;;;;18.10;31.67;101513.16;4232966;28;20440;-47
2022/01/29 00:35:26;;;;;;;3.95;2.50;;;;;;;18.09;31.60;101508.69;4233796;28;20031;-47
2022/01/29 00:37:30;;;;;;;3.13;2.83;;;;;;;18.09;31.86;101503.16;4232872;28;20044;-47
2022/01/29 00:39:32;;;;;;;4.28;2.70;;;;;;;18.08;31.82;101508.94;4233307;28;20108;-45
2022/01/29 00:41:33;;;;;;;3.45;2.78;;;;;;;18.04;31.54;101491.97;4233970;28;20059;-46
2022/01/29 00:43:35;;;;;;;3.65;2.78;;;;;;;18.07;31.83;101501.75;4233218;28;20543;-46
2022/01/29 00:45:36;;;;;;;3.80;3.10;;;;;;;18.06;31.93;101500.91;4233241;28;20085;-44
2022/01/29 00:47:38;;;;;;;4.57;2.95;;;;;;;18.04;31.87;101489.22;4234343;28;20032;-43
2022/01/29 00:49:40;;;;;;;3.20;2.70;;;;;;;18.05;31.72;101488.13;4233954;28;20053;-45
2022/01/29 00:51:41;;;;;;;3.78;2.80;;;;;;;18.02;31.48;101474.78;4232919;28;20047;-45
2022/01/29 00:53:43;;;;;;;3.00;2.67;;;;;;;18.02;31.86;101472.84;4232755;28;20088;-46
2022/01/29 00:55:45;;;;;;;2.72;2.47;;;;;;;18.02;32.07;101474.78;4232737;28;20100;-44
2022/01/29 00:57:46;;;;;;;2.40;2.20;;;;;;;18.00;31.96;101476.94;4232717;28;20089;-47
2022/01/29 00:59:47;;;;;;;3.22;2.58;;;;;;;18.01;31.50;101479.50;4214907;28;20078;-46
2022/01/29 01:01:49;;;;;;;3.72;2.50;;;;;;;18.00;31.82;101479.72;4232968;28;20048;-45
2022/01/29 01:03:54;;;;;;;5.22;2.80;;;;;;;17.99;31.88;101467.81;4233122;28;20112;-46
2022/01/29 01:05:55;;;;;;;3.65;2.67;;;;;;;17.96;31.68;101465.56;4233991;28;20413;-45
2022/01/29 01:07:58;;;;;;;4.70;2.80;;;;;;;17.99;31.87;101466.97;4233002;28;20420;-46
2022/01/29 01:10:02;;;;;;;3.20;2.88;;;;;;;17.97;31.54;101458.09;4232560;28;20104;-45
2022/01/29 01:12:04;;;;;;;3.45;2.85;;;;;;;17.97;31.98;101455.31;4215390;28;20069;-45
2022/01/29 01:14:06;;;;;;;2.83;2.42;;;;;;;17.97;31.90;101464.47;4232654;28;20420;-51
2022/01/29 01:16:07;;;;;;;3.33;2.45;;;;;;;17.94;31.69;101464.09;4232524;28;20096;-47
2022/01/29 01:18:11;;;;;;;4.47;2.78;;;;;;;17.93;32.00;101462.44;4233049;28;20081;-44
2022/01/29 01:20:13;;;;;;;2.85;2.65;;;;;;;17.96;31.77;101470.22;4232710;28;20088;-48
2022/01/29 01:22:16;;;;;;;3.80;2.70;;;;;;;17.95;31.75;101466.63;4232547;28;20036;-44
2022/01/29 01:24:17;;;;;;;4.13;3.15;;;;;;;17.91;31.80;101472.91;4232966;28;20093;-45
2022/01/29 01:26:19;;;;;;;3.50;2.67;;;;;;;17.94;31.59;101481.56;4233086;28;20085;-46
2022/01/29 01:28:20;;;;;;;3.30;2.60;;;;;;;17.93;31.63;101488.19;4232722;28;20043;-45
2022/01/29 01:30:22;;;;;;;3.17;2.78;;;;;;;17.94;31.62;101483.50;4232211;28;20043;-48
2022/01/29 01:32:26;;;;;;;2.60;2.28;;;;;;;17.90;31.63;101476.75;4232385;28;20073;-46
2022/01/29 01:34:32;;;;;;;2.75;2.38;;;;;;;17.90;31.62;101491.44;4232505;28;20043;-46
2022/01/29 01:36:41;;;;;;;2.97;2.50;;;;;;;17.91;31.57;101484.81;4232404;28;20536;-50
2022/01/29 01:38:53;;;;;;;3.33;2.90;;;;;;;17.92;31.56;101494.81;4232108;28;20528;-45
2022/01/29 01:41:00;;;;;;;3.28;2.58;;;;;;;17.93;31.50;101490.13;4232131;28;20112;-47
2022/01/29 01:43:02;;;;;;;2.95;2.63;;;;;;;17.85;31.79;101469.19;4216712;28;20093;-44
2022/01/29 01:45:04;;;;;;;3.85;2.65;;;;;;;17.91;31.60;101481.22;4231732;28;20036;-46
2022/01/29 01:47:06;;;;;;;2.97;2.65;;;;;;;17.89;31.72;101473.16;4231936;28;20043;-45
2022/01/29 01:49:07;;;;;;;3.53;2.53;;;;;;;17.89;31.61;101472.31;4232353;28;20035;-47
2022/01/29 01:51:09;;;;;;;4.88;3.13;;;;;;;17.88;31.81;101463.19;4232115;28;20088;-46
2022/01/29 01:53:13;;;;;;;2.95;2.60;;;;;;;17.88;31.53;101459.56;4231740;28;20040;-50
2022/01/29 01:55:15;;;;;;;3.17;2.73;;;;;;;17.87;31.96;101452.31;4232639;28;20089;-47
2022/01/29 01:57:17;;;;;;;4.63;2.83;;;;;;;17.87;31.57;101455.09;4231692;28;20264;-46
2022/01/29 01:59:19;;;;;;;3.05;2.40;;;;;;;17.85;31.59;101437.91;4232779;28;20420;-46
2022/01/29 02:01:23;;;;;;;3.65;2.50;;;;;;;17.83;31.76;101429.03;4214104;28;20040;-45
2022/01/29 02:03:25;;;;;;;3.15;2.70;;;;;;;17.84;31.63;101419.63;4232065;28;20101;-49
2022/01/29 02:05:26;;;;;;;3.38;2.83;;;;;;;17.80;31.83;101405.44;4232802;28;20088;-46
2022/01/29 02:07:29;;;;;;;3.83;2.78;;;;;;;17.80;31.56;101404.59;4232975;28;20040;-47
2022/01/29 02:09:32;;;;;;;3.30;2.78;;;;;;;17.80;31.81;101407.38;4231540;28;20047;-44
2022/01/29 02:11:38;;;;;;;3.75;2.80;;;;;;;17.74;32.12;101398.13;4231502;28;20031;-44
2022/01/29 02:13:39;;;;;;;3.40;2.83;;;;;;;17.71;31.92;101395.81;4231762;28;20501;-54
2022/01/29 02:15:46;;;;;;;6.60;3.10;;;;;;;17.66;32.33;101385.50;4232006;28;20421;-46
2022/01/29 02:17:48;;;;;;;3.40;2.95;;;;;;;17.65;32.25;101375.53;4231740;28;20044;-45
2022/01/29 02:19:50;;;;;;;3.95;2.60;;;;;;;17.64;32.38;101378.50;4231147;28;20535;-45
2022/01/29 02:21:52;;;;;;;3.75;2.78;;;;;;;17.61;32.52;101376.25;4231705;28;20039;-46
2022/01/29 02:23:53;;;;;;;4.15;2.95;;;;;;;17.60;32.50;101360.75;4231338;28;20032;-49
2022/01/29 02:25:55;;;;;;;3.63;3.05;;;;;;;17.62;32.57;101362.16;4231379;28;20043;-44
2022/01/29 02:28:06;;;;;;;3.20;2.90;;;;;;;17.63;32.46;101368.53;4231675;28;20507;-49
2022/01/29 02:30:08;;;;;;;3.70;2.80;;;;;;;17.64;32.30;101368.31;4230556;28;20040;-46
2022/01/29 02:32:09;;;;;;;3.58;2.60;;;;;;;17.66;32.35;101374.41;4233744;27;20035;-45
2022/01/29 02:34:10;;;;;;;3.92;3.05;;;;;;;17.68;32.26;101366.69;4239371;27;20092;-47
2022/01/29 02:36:12;;;;;;;3.47;2.80;;;;;;;17.65;32.69;101358.91;4247760;27;20035;-46
2022/01/29 02:38:15;;;;;;;2.97;2.58;;;;;;;17.72;32.72;101362.34;4244758;27;20035;-44
2022/01/29 02:40:24;;;;;;;3.33;2.78;;;;;;;17.74;32.28;101360.22;4247002;27;20043;-45
2022/01/29 02:42:28;;;;;;;3.35;2.45;;;;;;;17.75;32.58;101369.34;4248475;27;20035;-43
2022/01/29 02:44:31;;;;;;;3.78;3.05;;;;;;;17.78;32.34;101378.00;4248300;27;20038;-48
2022/01/29 02:47:33;;;;;;;2.83;2.55;;;;;;;17.80;32.23;101377.75;4248411;27;20096;-45
2022/01/29 02:49:03;;;;;;;3.30;2.90;;;;;;;17.84;32.24;101372.56;4233358;27;20035;-46
2022/01/29 02:51:05;;;;;;;4.55;3.10;;;;;;;17.85;32.20;101372.31;4248741;27;20100;-48
2022/01/29 02:53:07;;;;;;;4.10;3.40;;;;;;;17.87;32.41;101364.59;4229280;28;20040;-45
2022/01/29 02:55:09;;;;;;;4.43;3.22;;;;;;;17.87;32.35;101360.97;4248367;27;20103;-49
2022/01/29 02:57:11;;;;;;;3.78;2.97;;;;;;;17.84;31.99;101347.66;4248272;27;20036;-48
2022/01/29 02:59:13;;;;;;;3.72;2.72;;;;;;;17.88;32.45;101338.59;4247540;27;20534;-45
2022/01/29 03:01:14;;;;;;;3.65;2.83;;;;;;;17.91;32.11;101327.00;4248196;27;20096;-46
2022/01/29 03:03:16;;;;;;;3.72;3.20;;;;;;;17.90;31.93;101325.31;4248118;27;20411;-46
2022/01/29 03:05:17;;;;;;;4.50;2.80;;;;;;;17.90;32.20;101317.00;4229665;28;20057;-48
2022/01/29 03:07:19;;;;;;;4.45;3.65;;;;;;;17.93;31.86;101312.91;4248718;27;20076;-44
2022/01/29 03:09:20;;;;;;;3.08;2.78;;;;;;;17.95;32.41;101310.72;4248592;27;20080;-46
2022/01/29 03:11:22;;;;;;;3.40;2.95;;;;;;;17.94;32.16;101320.97;4239531;27;20535;-46
2022/01/29 03:13:24;;;;;;;4.88;3.10;;;;;;;17.95;32.26;101328.16;4247774;27;20088;-50
2022/01/29 03:15:25;;;;;;;3.42;2.70;;;;;;;17.96;31.84;101313.25;4248601;27;20076;-45
2022/01/29 03:17:27;;;;;;;3.90;2.80;;;;;;;17.97;32.32;101303.84;4248510;27;20088;-46
2022/01/29 03:19:31;;;;;;;4.55;3.08;;;;;;;17.97;32.37;101287.25;4229616;28;20104;-46
2022/01/29 03:21:33;;;;;;;4.27;3.03;;;;;;;17.97;31.87;101291.94;4244646;27;20039;-46
2022/01/29 03:23:34;;;;;;;4.07;3.22;;;;;;;18.00;32.21;101302.50;4246803;27;20275;-44
2022/01/29 03:25:36;;;;;;;4.82;3.13;;;;;;;18.00;31.90;101314.41;4243860;27;20031;-46
2022/01/29 03:27:37;;;;;;;3.55;3.15;;;;;;;18.02;32.17;101305.88;4247885;27;20424;-46
2022/01/29 03:29:41;;;;;;;4.53;3.47;;;;;;;18.01;32.19;101290.34;4247804;27;20092;-44
2022/01/29 03:31:43;;;;;;;3.77;3.20;;;;;;;18.02;32.18;101287.31;4247566;27;20039;-44
2022/01/29 03:33:44;;;;;;;3.67;3.08;;;;;;;18.02;31.99;101289.25;4247475;27;20332;-46
2022/01/29 03:35:45;;;;;;;4.05;3.00;;;;;;;18.02;31.78;101280.94;4247146;27;20381;-45
2022/01/29 03:37:47;;;;;;;3.65;2.92;;;;;;;18.04;32.11;101273.22;4247415;27;20039;-47
2022/01/29 03:39:48;;;;;;;3.40;2.47;;;;;;;18.00;31.88;101258.19;4247441;27;20092;-46
2022/01/29 03:41:50;;;;;;;3.42;3.13;;;;;;;18.03;32.13;101263.22;4248375;27;20031;-47
2022/01/29 03:43:53;;;;;;;3.63;2.97;;;;;;;18.04;31.72;101262.13;4247245;27;20043;-46
2022/01/29 03:45:55;;;;;;;4.18;3.08;;;;;;;18.03;31.75;101253.00;4221831;28;20040;-45
2022/01/29 03:47:56;;;;;;;3.47;3.10;;;;;;;18.04;31.73;101243.59;4231281;28;20536;-46
2022/01/29 03:49:58;;;;;;;3.95;2.83;;;;;;;18.03;31.79;101230.84;4231011;28;20035;-50
2022/01/29 03:51:59;;;;;;;4.97;3.28;;;;;;;18.03;32.11;101230.84;4230292;28;20098;-45
2022/01/29 03:54:00;;;;;;;3.97;2.70;;;;;;;18.03;32.01;101228.06;4230579;28;20039;-48
2022/01/29 03:56:02;;;;;;;3.63;2.67;;;;;;;18.03;32.05;101210.63;4230685;28;20097;-46
2022/01/29 03:58:06;;;;;;;4.45;3.25;;;;;;;18.04;32.00;101215.06;4229792;28;20478;-46
2022/01/29 04:00:08;;;;;;;3.25;2.95;;;;;;;18.03;32.04;101217.00;4229622;28;20044;-46
2022/01/29 04:02:09;;;;;;;5.13;2.95;;;;;;;18.05;32.25;101205.66;4230210;28;20100;-48
2022/01/29 04:04:11;;;;;;;3.20;2.50;;;;;;;18.04;32.12;101217.81;4229529;28;20096;-50
2022/01/29 04:06:12;;;;;;;4.10;3.00;;;;;;;18.03;32.25;101219.75;4230351;28;20112;-45
2022/01/29 04:08:16;;;;;;;3.83;3.30;;;;;;;18.04;31.88;101226.97;4230140;28;20532;-48
2022/01/29 04:10:20;;;;;;;3.27;2.97;;;;;;;18.04;32.04;101220.59;4229568;28;20121;-46
2022/01/29 04:12:24;;;;;;;5.93;3.17;;;;;;;18.04;32.00;101223.34;4229338;28;20834;-46
2022/01/29 04:14:31;;;;;;;4.45;2.95;;;;;;;18.04;32.20;101220.59;4229339;28;20036;-45
2022/01/29 04:16:33;;;;;;;4.25;3.33;;;;;;;18.04;32.20;101231.66;4230069;28;20096;-45
2022/01/29 04:18:34;;;;;;;3.03;2.72;;;;;;;18.03;31.86;101238.31;4230044;28;20036;-46
2022/01/29 04:20:36;;;;;;;3.13;2.70;;;;;;;18.03;31.88;101230.00;4230377;28;20428;-45
2022/01/29 04:22:37;;;;;;;3.35;2.72;;;;;;;18.03;32.18;101218.91;4230123;28;20040;-48
2022/01/29 04:24:41;;;;;;;4.63;3.10;;;;;;;18.03;32.14;101213.38;4230095;28;20092;-45
2022/01/29 04:26:45;;;;;;;3.58;2.78;;;;;;;18.02;32.15;101217.25;4229638;28;20039;-46
2022/01/29 04:28:48;;;;;;;3.03;2.72;;;;;;;18.02;32.25;101228.34;4230208;28;20043;-45
2022/01/29 04:30:55;;;;;;;4.43;2.70;;;;;;;18.02;32.31;101236.63;4229707;28;20097;-45
2022/01/29 04:33:13;;;;;;;2.95;2.45;;;;;;;18.00;32.00;101224.97;4230198;28;20039;-44
2022/01/29 04:35:15;;;;;;;4.72;2.97;;;;;;;18.03;32.30;101221.69;4228348;28;20052;-45
2022/01/29 04:37:16;;;;;;;3.78;3.22;;;;;;;18.00;31.82;101213.88;4229740;28;20039;-45
2022/01/29 04:39:18;;;;;;;2.83;2.42;;;;;;;18.00;32.02;101186.19;4230638;28;20531;-46
2022/01/29 04:41:21;;;;;;;4.15;2.60;;;;;;;18.01;31.92;101187.91;4230066;28;20452;-45
2022/01/29 04:43:24;;;;;;;3.22;2.55;;;;;;;17.99;32.06;101178.97;4229994;28;20043;-43
2022/01/29 04:45:25;;;;;;;3.10;2.60;;;;;;;17.99;31.94;101165.13;4229998;28;20096;-46
2022/01/29 04:47:27;;;;;;;3.72;2.90;;;;;;;17.95;31.79;101150.13;4229752;28;20032;-44
2022/01/29 04:49:28;;;;;;;3.08;2.40;;;;;;;17.97;31.92;101147.97;4230030;28;20544;-46
2022/01/29 04:51:30;;;;;;;3.15;2.60;;;;;;;17.98;32.27;101144.09;4230745;28;20085;-44
2022/01/29 04:53:31;;;;;;;2.92;2.63;;;;;;;17.99;32.11;101148.53;4229831;28;20096;-44
2022/01/29 04:55:34;;;;;;;2.50;2.30;;;;;;;17.98;32.06;101144.09;4230730;28;20381;-45
2022/01/29 04:57:37;;;;;;;4.28;2.60;;;;;;;17.97;31.99;101120.28;4229884;28;20044;-43
2022/01/29 04:59:39;;;;;;;3.47;2.97;;;;;;;17.95;31.98;101116.91;4229459;28;20039;-45
2022/01/29 05:01:40;;;;;;;2.83;2.53;;;;;;;17.97;32.37;101110.03;4230289;28;20108;-44
2022/01/29 05:03:41;;;;;;;3.70;2.95;;;;;;;17.96;32.18;101107.50;4229914;28;20039;-44
2022/01/29 05:05:43;;;;;;;2.88;2.58;;;;;;;17.95;32.09;101091.97;4229302;28;20459;-49
2022/01/29 05:07:46;;;;;;;3.83;2.92;;;;;;;17.96;32.18;101085.34;4230422;28;20100;-46
2022/01/29 05:09:47;;;;;;;3.58;2.80;;;;;;;17.94;32.30;101090.31;4230008;28;20039;-46
2022/01/29 05:11:51;;;;;;;3.10;2.55;;;;;;;17.95;32.26;101089.22;4229628;28;20413;-45
2022/01/29 05:13:52;;;;;;;3.35;2.72;;;;;;;17.95;32.01;101091.97;4229929;28;20039;-51
2022/01/29 05:16:07;;;;;;;3.58;2.58;;;;;;;17.95;32.36;101089.22;4230450;28;20100;-47
2022/01/29 05:27:31;;;;;;;3.55;2.80;;;;;;;17.95;32.14;101061.53;4235403;28;20092;-45
2022/01/29 05:29:33;;;;;;;3.88;2.72;;;;;;;17.93;32.03;101049.88;4232460;28;20035;-46
2022/01/29 05:31:35;;;;;;;3.45;2.63;;;;;;;17.93;32.06;101038.81;4232483;28;20117;-45
2022/01/29 05:33:37;;;;;;;3.25;2.50;;;;;;;17.91;32.00;101021.59;4232385;28;20036;-45
2022/01/29 05:35:38;;;;;;;3.92;2.60;;;;;;;17.91;32.33;101007.75;4233277;28;20065;-44
2022/01/29 05:37:40;;;;;;;4.45;2.80;;;;;;;17.90;32.12;101023.53;4232314;28;20039;-45
2022/01/29 05:39:41;;;;;;;3.90;2.80;;;;;;;17.90;32.33;101019.94;4232028;28;20449;-42
2022/01/29 05:41:45;;;;;;;3.55;2.65;;;;;;;17.89;32.00;101008.03;4231948;28;20515;-46
2022/01/29 05:43:47;;;;;;;3.73;2.80;;;;;;;17.91;31.91;101005.00;4232786;28;20040;-49
2022/01/29 05:45:49;;;;;;;3.72;2.53;;;;;;;17.90;32.21;101015.25;4232618;28;20093;-43
2022/01/29 05:47:50;;;;;;;2.70;2.40;;;;;;;17.91;32.03;101016.06;4232238;28;20032;-44
2022/01/29 05:49:51;;;;;;;3.78;2.88;;;;;;;17.87;31.97;101015.78;4232461;28;20035;-47
2022/01/29 05:51:53;;;;;;;3.35;3.05;;;;;;;17.89;31.94;101018.28;4232407;28;20031;-45
2022/01/29 05:53:54;;;;;;;2.90;2.33;;;;;;;17.89;31.89;101029.34;4233223;28;20028;-44
2022/01/29 05:55:56;;;;;;;3.15;2.33;;;;;;;17.84;32.03;101015.44;4232218;28;20092;-45
2022/01/29 05:57:58;;;;;;;3.55;2.58;;;;;;;17.89;32.02;101001.66;4233096;28;20054;-46
2022/01/29 05:59:59;;;;;;;2.63;2.42;;;;;;;17.88;31.77;101017.44;4231519;28;20039;-50
2022/01/29 06:02:01;;;;;;;3.15;2.38;;;;;;;17.87;32.02;101018.53;4232068;28;20444;-42
2022/01/29 06:04:02;;;;;;;3.17;2.88;;;;;;;17.87;32.12;100992.75;4232528;28;20056;-43
2022/01/29 06:06:03;;;;;;;2.85;2.30;;;;;;;17.88;32.06;100994.47;4231903;28;20052;-46
2022/01/29 06:08:06;;;;;;;3.40;2.55;;;;;;;17.87;32.04;100982.56;4232327;28;20032;-47
2022/01/29 06:10:07;;;;;;;2.75;2.33;;;;;;;17.86;31.96;100975.31;4232476;28;20488;-48
2022/01/29 06:12:09;;;;;;;3.25;2.38;;;;;;;17.86;31.88;100988.34;4231227;28;20035;-47
2022/01/29 06:14:12;;;;;;;3.53;2.63;;;;;;;17.85;32.12;100987.50;4231970;28;20466;-44
2022/01/29 06:16:13;;;;;;;4.25;2.58;;;;;;;17.86;31.94;100977.25;4231855;28;20478;-46
2022/01/29 06:18:23;;;;;;;3.70;2.83;;;;;;;17.85;32.27;100970.06;4232697;28;20425;-44
2022/01/29 06:20:25;;;;;;;3.20;2.72;;;;;;;17.86;31.96;100963.41;4231420;28;20104;-44
2022/01/29 06:22:27;;;;;;;2.90;2.55;;;;;;;17.84;31.82;100968.38;4231619;28;20077;-46
2022/01/29 06:24:28;;;;;;;2.80;2.40;;;;;;;17.83;32.09;100967.56;4232265;28;20089;-45
2022/01/29 06:26:30;;;;;;;3.92;2.70;;;;;;;17.82;32.27;100967.78;4231684;28;20036;-45
2022/01/29 06:28:31;;;;;;;2.53;2.33;;;;;;;17.82;32.16;100973.34;4213896;28;20044;-45
2022/01/29 06:30:33;;;;;;;2.92;2.60;;;;;;;17.82;32.25;100967.78;4231152;28;20043;-46
2022/01/29 06:32:35;;;;;;;2.75;2.20;;;;;;;17.78;31.99;100984.13;4231754;28;20039;-49
2022/01/29 06:34:36;;;;;;;3.50;2.85;;;;;;;17.80;32.24;100972.78;4231806;28;20126;-44
2022/01/29 06:36:38;;;;;;;3.20;2.40;;;;;;;17.80;32.30;100970.00;4231079;28;20096;-44
2022/01/29 06:38:39;;;;;;;3.40;2.50;;;;;;;17.75;32.14;100957.78;4231780;28;20136;-47
2022/01/29 06:40:42;;;;;;;4.40;2.55;;;;;;;17.76;32.17;100959.44;4213722;28;20159;-44
2022/01/29 06:42:43;;;;;;;3.60;2.78;;;;;;;17.74;31.89;100945.03;4231584;28;20073;-46
2022/01/29 06:44:44;;;;;;;2.78;2.50;;;;;;;17.77;31.94;100954.72;4231398;28;20047;-46
2022/01/29 06:46:46;;;;;;;2.28;2.08;;;;;;;17.73;32.29;100943.38;4231689;28;20464;-47
2022/01/29 06:48:47;;;;;;;2.80;2.42;;;;;;;17.74;31.91;100938.66;4231286;28;20093;-46
2022/01/29 06:50:49;;;;;;;3.50;2.42;;;;;;;17.75;32.02;100941.16;4231814;28;20081;-46
2022/01/29 06:52:51;;;;;;;2.75;2.28;;;;;;;17.73;32.30;100931.41;4231128;28;20035;-45
2022/01/29 06:54:52;;;;;;;3.70;2.38;;;;;;;17.74;31.88;100927.59;4230686;28;20184;-48
2022/01/29 06:56:54;;;;;;;2.58;2.35;;;;;;;17.74;31.92;100922.06;4230982;28;20068;-47
2022/01/29 06:58:58;;;;;;;2.55;2.15;;;;;;;17.73;31.85;100932.31;4230892;28;20035;-46
2022/01/29 07:01:03;;;;;;;2.95;2.45;;;;;;;17.73;32.04;100926.75;4232234;28;20031;-49
2022/01/29 07:03:04;;;;;;;2.88;2.40;;;;;;;17.73;31.88;100921.22;4231068;28;20430;-45
2022/01/29 07:05:08;;;;;;;2.65;2.22;;;;;;;17.74;32.17;100911.81;4231725;28;20056;-48
2022/01/29 07:07:09;;;;;;;3.03;2.58;;;;;;;17.70;31.94;100898.72;4230844;28;20405;-47
2022/01/29 07:09:11;;;;;;;2.45;2.25;;;;;;;17.72;32.14;100894.59;4230733;28;20040;-50
2022/01/29 07:11:12;;;;;;;2.70;2.35;;;;;;;17.72;32.22;100891.81;4231781;28;20364;-47
2022/01/29 07:13:14;;;;;;;4.53;2.58;;;;;;;17.72;32.00;100894.59;4230528;28;20089;-46
2022/01/29 07:15:15;;;;;;;3.40;2.55;;;;;;;17.72;31.82;100885.47;4230868;28;20039;-49
2022/01/29 07:17:19;;;;;;;2.42;2.22;;;;;;;17.71;31.72;100879.09;4230592;28;20096;-47
2022/01/29 07:19:20;;;;;;;2.70;2.25;;;;;;;17.70;32.22;100888.50;4230051;28;20100;-45
2022/01/29 07:21:22;;;;;;;2.50;2.10;;;;;;;17.64;31.99;100867.41;4230475;28;20116;-44
2022/01/29 07:23:26;;;;;;;2.63;2.42;;;;;;;17.69;31.87;100875.75;4230794;28;20047;-44
2022/01/29 07:25:30;;;;;;;2.88;2.50;;;;;;;17.71;31.80;100872.72;4230592;28;20047;-46
2022/01/29 07:27:31;;;;;;;4.87;2.23;;;;;;;17.69;31.83;100864.69;4231337;28;20324;-45
2022/01/29 07:29:34;;;;;;;2.75;2.47;;;;;;;17.71;32.14;100872.72;4230449;28;20732;-47
2022/01/29 07:31:39;;;;;;;3.70;2.30;;;;;;;17.69;31.90;100870.22;4230979;28;20471;-46
2022/01/29 07:33:43;;;;;;;2.40;2.20;;;;;;;17.69;32.10;100853.63;4230598;28;20048;-45
2022/01/29 07:35:45;;;;;;;2.55;2.10;;;;;;;17.68;32.15;100840.84;4231087;28;20043;-45
2022/01/29 07:37:46;;;;;;;2.97;2.50;;;;;;;17.69;31.76;100836.19;4213756;28;20532;-51
2022/01/29 07:39:48;;;;;;;2.85;2.28;;;;;;;17.62;32.21;100830.00;4211765;28;20039;-46
2022/01/29 07:41:53;;;;;;;3.40;2.17;;;;;;;17.67;31.83;100844.72;4230652;28;20036;-49
2022/01/29 07:43:54;;;;;;;3.17;2.08;;;;;;;17.64;31.98;100834.22;4212233;28;20040;-45
2022/01/29 07:45:56;;;;;;;2.88;2.58;;;;;;;17.66;31.87;100814.56;4230466;28;20064;-46
2022/01/29 07:47:59;;;;;;;2.95;2.50;;;;;;;17.64;31.88;100812.06;4230835;28;20048;-48
2022/01/29 07:50:01;;;;;;;3.58;2.38;;;;;;;17.65;31.95;100812.91;4230261;28;20040;-49
2022/01/29 07:52:03;;;;;;;2.63;2.13;;;;;;;17.64;31.96;100812.06;4230545;28;20043;-46
2022/01/29 07:54:05;;;;;;;3.55;2.30;;;;;;;17.61;31.84;100784.91;4230488;28;20085;-47
2022/01/29 07:56:07;;;;;;;2.40;2.15;;;;;;;17.61;32.27;100776.59;4230048;28;20116;-48
2022/01/29 07:58:09;;;;;;;2.90;2.03;;;;;;;17.62;31.82;100763.59;4230125;28;20097;-48
2022/01/29 08:00:11;;;;;;;3.10;2.25;;;;;;;17.59;32.21;100751.13;4230817;28;20028;-47
2022/01/29 08:02:12;;;;;;;3.17;2.60;;;;;;;17.59;32.35;100751.13;4230043;28;20043;-48
2022/01/29 08:04:14;;;;;;;2.88;2.33;;;;;;;17.59;31.94;100739.22;4230448;28;20031;-48
2022/01/29 08:06:18;;;;;;;3.42;2.45;;;;;;;17.56;32.11;100737.81;4230520;28;20437;-50
2022/01/29 08:08:19;;;;;;;2.33;2.10;;;;;;;17.58;32.08;100748.63;4230388;28;20097;-46
2022/01/29 08:10:21;;;;;;;2.75;2.20;;;;;;;17.55;32.25;100741.69;4230057;28;20044;-47
2022/01/29 08:12:22;;;;;;;2.40;2.00;;;;;;;17.53;31.95;100721.75;4230043;28;20100;-49
2022/01/29 08:14:24;;;;;;;2.70;2.50;;;;;;;17.53;32.03;100732.81;4229860;28;20047;-45
2022/01/29 08:16:25;;;;;;;3.03;2.33;;;;;;;17.53;31.89;100739.19;4222762;28;20085;-44
2022/01/29 08:18:27;;;;;;;2.50;2.00;;;;;;;17.54;31.97;100751.06;4213381;28;20437;-46
2022/01/29 08:20:28;;;;;;;2.92;2.20;;;;;;;17.52;32.02;100747.75;4212913;28;20052;-46
2022/01/29 08:22:29;;;;;;;2.13;1.85;;;;;;;17.54;32.03;100731.72;4213840;28;20070;-50
2022/01/29 08:24:31;;;;;;;2.30;2.10;;;;;;;17.53;31.74;100727.28;4213274;28;20100;-47
2022/01/29 08:26:32;;;;;;;2.40;2.20;;;;;;;17.53;32.07;100699.63;4195892;28;20365;-48
2022/01/29 08:28:34;;;;;;;2.42;2.10;;;;;;;17.52;31.99;100720.09;4214134;28;20028;-47
2022/01/29 08:30:38;;;;;;;2.10;1.77;;;;;;;17.52;31.83;100747.75;4213502;28;20549;-45
2022/01/29 08:32:43;;;;;;;2.22;2.00;;;;;;;17.49;31.99;100757.41;4213303;28;20459;-49
2022/01/29 08:34:46;;;;;;;2.83;2.05;;;;;;;17.49;32.23;100767.63;4213180;28;20424;-45
2022/01/29 08:36:49;;;;;;;2.38;1.92;;;;;;;17.47;32.30;100756.00;4212724;28;20044;-48
2022/01/29 08:38:50;;;;;;;3.00;2.13;;;;;;;17.48;32.20;100754.91;4212997;28;20040;-44
2022/01/29 08:40:53;;;;;;;2.38;2.08;;;;;;;17.46;31.86;100773.72;4213460;28;20113;-44
2022/01/29 08:42:57;;;;;;;2.03;1.83;;;;;;;17.48;32.34;100785.34;4213224;28;20093;-48
2022/01/29 08:44:59;;;;;;;2.17;1.95;;;;;;;17.48;31.89;100788.94;4213217;28;20501;-46
2022/01/29 08:47:00;;;;;;;2.47;2.00;;;;;;;17.48;31.86;100790.88;4213696;28;20047;-47
2022/01/29 08:49:02;;;;;;;2.13;1.90;;;;;;;17.46;31.92;100787.53;4212845;28;20069;-46
2022/01/29 08:51:03;;;;;;;2.88;2.20;;;;;;;17.44;31.92;100771.19;4212647;28;20048;-48
2022/01/29 08:53:05;;;;;;;1.98;1.77;;;;;;;17.46;32.22;100762.63;4216491;28;20105;-46
2022/01/29 08:55:08;;;;;;;1.98;1.80;;;;;;;17.45;32.03;100741.59;4217159;28;20089;-49
2022/01/29 08:57:09;;;;;;;2.60;1.88;;;;;;;17.44;32.29;100717.78;4216023;28;20390;-48
2022/01/29 08:59:11;;;;;;;2.15;1.73;;;;;;;17.42;32.10;100703.41;4216206;28;20044;-48
2022/01/29 09:01:16;;;;;;;2.38;1.88;;;;;;;17.42;32.04;100706.16;4216840;28;20437;-47
2022/01/29 09:03:18;;;;;;;2.00;1.80;;;;;;;17.41;31.86;100721.94;4216829;28;20036;-46
2022/01/29 09:05:19;;;;;;;2.13;1.92;;;;;;;17.39;32.04;100731.56;4216835;28;20093;-45
2022/01/29 09:07:21;;;;;;;2.20;2.00;;;;;;;17.39;31.88;100717.75;4216789;28;20040;-45
2022/01/29 09:09:26;;;;;;;3.05;1.90;;;;;;;17.39;32.15;100709.44;4215636;28;20036;-47
2022/01/29 09:11:27;;;;;;;2.60;1.90;;;;;;;17.38;32.39;100707.78;4216962;28;20356;-47
2022/01/29 09:13:29;;;;;;;2.05;1.70;;;;;;;17.40;31.89;100711.09;4216613;28;20036;-46
2022/01/29 09:15:33;;;;;;;2.15;1.90;;;;;;;17.39;32.05;100707.50;4215606;28;20093;-46
2022/01/29 09:17:35;;;;;;;2.03;1.83;;;;;;;17.38;31.96;100707.78;4215978;28;20043;-45
2022/01/29 09:19:36;;;;;;;1.83;1.70;;;;;;;17.37;32.20;100711.66;4215427;28;20101;-46
2022/01/29 09:21:38;;;;;;;1.95;1.75;;;;;;;17.36;32.03;100704.44;4216033;28;20055;-46
2022/01/29 09:23:41;;;;;;;2.33;1.88;;;;;;;17.37;31.88;100712.50;4216460;28;20036;-45
2022/01/29 09:25:42;;;;;;;2.63;2.10;;;;;;;17.35;31.99;100700.84;4215880;28;20044;-44
2022/01/29 09:27:44;;;;;;;2.10;1.60;;;;;;;17.35;32.43;100709.13;4216433;28;20082;-44
2022/01/29 09:29:45;;;;;;;2.50;2.08;;;;;;;17.34;32.03;100714.94;4215680;28;20035;-46
2022/01/29 09:31:47;;;;;;;2.10;1.83;;;;;;;17.34;32.17;100703.88;4216731;28;20082;-43
2022/01/29 09:33:48;;;;;;;2.15;1.55;;;;;;;17.34;32.37;100695.56;4216591;28;20028;-45
2022/01/29 09:35:50;;;;;;;2.25;1.85;;;;;;;17.31;32.15;100676.72;4216299;28;20541;-45
2022/01/29 09:37:52;;;;;;;1.80;1.70;;;;;;;17.31;32.27;100683.09;4216116;28;20044;-48